createdAt,value
2023-02-09T00:02:54.305Z,98741.59
2023-02-09T00:07:56.356Z,98738.91
2023-02-09T00:13:16.646Z,98752.88
2023-02-09T00:18:18.520Z,98754.97
2023-02-09T00:23:20.187Z,98754.16
2023-02-09T00:28:21.976Z,98763.28
2023-02-09T00:33:26.708Z,98760.06
2023-02-09T00:38:28.468Z,98755.38
2023-02-09T00:43:30.153Z,98750.59
2023-02-09T00:48:32.161Z,98747.81
2023-02-09T00:53:33.897Z,98734.72
2023-02-09T00:58:35.539Z,98728.66
2023-02-09T01:03:37.398Z,98731.31
2023-02-09T01:08:39.000Z,98723.44
2023-02-09T01:13:41.295Z,98723.84
2023-02-09T01:18:43.700Z,98711.59
2023-02-09T01:23:47.122Z,98713.47
2023-02-09T01:28:53.472Z,98717.56
2023-02-09T01:33:57.851Z,98717.28
2023-02-09T01:39:03.702Z,98705.47
2023-02-09T01:44:11.493Z,98692.25
2023-02-09T01:49:21.145Z,98685.25
2023-02-09T01:54:27.117Z,98688.75
2023-02-09T01:59:29.795Z,98686.09
2023-02-09T02:04:32.401Z,98685.81
2023-02-09T02:09:34.304Z,98674.16
2023-02-09T02:14:37.835Z,98668.94
2023-02-09T02:19:58.093Z,98653.56
2023-02-09T02:25:37.943Z,98656.69
2023-02-09T02:31:17.515Z,98644.59
2023-02-09T02:36:42.639Z,98642.72
2023-02-09T02:42:17.050Z,98647.50
2023-02-09T02:47:20.868Z,98651.56
2023-02-09T02:52:22.830Z,98653.06
2023-02-09T02:57:31.197Z,98658.00
2023-02-09T03:02:48.148Z,98657.88
2023-02-09T03:07:50.585Z,98659.31
2023-02-09T03:13:07.877Z,98661.72
2023-02-09T03:18:32.864Z,98661.50
2023-02-09T03:24:11.122Z,98666.75
2023-02-09T03:29:15.696Z,98660.53
2023-02-09T03:34:18.317Z,98647.88
2023-02-09T03:39:20.046Z,98644.91
2023-02-09T03:44:27.748Z,98641.91
2023-02-09T03:49:35.013Z,98652.06
2023-02-09T03:54:37.185Z,98638.06
2023-02-09T03:59:39.695Z,98643.69
2023-02-09T04:04:41.338Z,98644.47
2023-02-09T04:09:43.304Z,98647.56
2023-02-09T04:14:45.056Z,98644.75
2023-02-09T04:19:46.806Z,98644.75
2023-02-09T04:24:48.465Z,98644.75
2023-02-09T04:29:50.228Z,98643.59
2023-02-09T04:34:51.834Z,98647.78
2023-02-09T04:39:53.694Z,98657.41
2023-02-09T04:44:55.382Z,98667.66
2023-02-09T04:49:57.135Z,98664.47
2023-02-09T04:54:58.768Z,98660.19
2023-02-09T05:00:00.429Z,98658.75
2023-02-09T05:05:02.261Z,98657.84
2023-02-09T05:10:04.172Z,98667.94
2023-02-09T05:15:06.062Z,98670.72
2023-02-09T05:20:08.763Z,98667.38
2023-02-09T05:25:10.448Z,98672.38
2023-02-09T05:30:12.464Z,98687.38
2023-02-09T05:35:14.330Z,98685.53
2023-02-09T05:40:16.151Z,98675.41
2023-02-09T05:45:18.002Z,98678.81
2023-02-09T05:50:19.848Z,98692.28
2023-02-09T05:55:21.496Z,98688.03
2023-02-09T06:00:24.979Z,98691.13
2023-02-09T06:05:27.176Z,98708.38
2023-02-09T06:10:29.120Z,98697.28
2023-02-09T06:15:30.918Z,98695.56
2023-02-09T06:20:32.685Z,98713.84
2023-02-09T06:25:34.414Z,98710.84
2023-02-09T06:30:36.198Z,98712.56
2023-02-09T06:35:37.816Z,98706.41
2023-02-09T06:40:39.576Z,98715.69
2023-02-09T06:45:41.385Z,98721.56
2023-02-09T06:50:43.166Z,98733.06
2023-02-09T06:55:44.998Z,98736.13
2023-02-09T07:00:46.947Z,98742.56
2023-02-09T07:05:48.888Z,98729.88
2023-02-09T07:10:50.572Z,98724.72
2023-02-09T07:15:57.108Z,98716.25
2023-02-09T07:21:01.735Z,98733.03
2023-02-09T07:26:05.955Z,98736.81
2023-02-09T07:31:10.307Z,98736.78
2023-02-09T07:36:14.032Z,98744.09
2023-02-09T07:41:19.398Z,98752.78
2023-02-09T07:46:22.755Z,98746.03
2023-02-09T07:51:28.715Z,98747.44
2023-02-09T07:56:30.504Z,98749.59
2023-02-09T08:01:33.754Z,98750.59
2023-02-09T08:06:43.201Z,98751.56
2023-02-09T08:11:53.169Z,98747.53
2023-02-09T08:17:20.080Z,98741.63
2023-02-09T08:22:24.838Z,98744.13
2023-02-09T08:27:26.905Z,98745.53
2023-02-09T08:32:28.770Z,98727.78
2023-02-09T08:37:31.269Z,98734.81
2023-02-09T08:42:33.178Z,98731.94
2023-02-09T08:47:35.001Z,98729.09
2023-02-09T08:52:36.672Z,98728.84
2023-02-09T08:57:44.015Z,98723.84
2023-02-09T09:02:46.349Z,98735.16
2023-02-09T09:07:48.277Z,98735.50
2023-02-09T09:12:51.822Z,98743.03
2023-02-09T09:17:53.568Z,98731.09
2023-02-09T09:22:59.326Z,98740.59
2023-02-09T09:28:01.503Z,98738.53
2023-02-09T09:33:04.221Z,98745.19
2023-02-09T09:38:05.827Z,98751.19
2023-02-09T09:43:19.174Z,98744.19
2023-02-09T09:48:26.831Z,98755.06
2023-02-09T09:53:36.706Z,98744.78
2023-02-09T09:58:44.183Z,98741.66
2023-02-09T10:03:45.848Z,98760.22
2023-02-09T10:09:03.181Z,98751.72
2023-02-09T10:14:04.833Z,98753.09
2023-02-09T10:19:17.232Z,98749.66
2023-02-09T10:24:30.712Z,98746.00
2023-02-09T10:29:32.427Z,98738.66
2023-02-09T10:34:46.461Z,98734.66
2023-02-09T10:40:00.975Z,98727.97
2023-02-09T10:45:23.622Z,98718.44
2023-02-09T10:50:25.368Z,98725.03
2023-02-09T10:55:40.386Z,98712.25
2023-02-09T11:00:41.950Z,98705.03
2023-02-09T11:05:45.711Z,98700.47
2023-02-09T11:11:08.117Z,98704.53
2023-02-09T11:16:28.438Z,98698.28
2023-02-09T11:21:40.905Z,98698.44
2023-02-09T11:26:50.796Z,98686.63
2023-02-09T11:32:20.634Z,98690.47
2023-02-09T11:37:28.277Z,98683.16
2023-02-09T11:42:44.607Z,98673.31
2023-02-09T11:48:13.832Z,98667.94
2023-02-09T11:53:33.642Z,98673.94
2023-02-09T11:58:44.490Z,98670.25
2023-02-09T12:04:18.609Z,98669.31
2023-02-09T12:09:36.626Z,98671.63
2023-02-09T12:14:49.017Z,98662.44
2023-02-09T12:20:01.401Z,98660.88
2023-02-09T12:25:12.183Z,98662.06
2023-02-09T12:30:44.967Z,98658.75
2023-02-09T12:36:23.983Z,98648.09
2023-02-09T12:41:29.390Z,98658.38
2023-02-09T12:46:31.196Z,98653.00
2023-02-09T12:51:42.043Z,98651.19
2023-02-09T12:56:43.762Z,98644.78
2023-02-09T13:02:04.161Z,98642.56
2023-02-09T13:07:15.041Z,98633.97
2023-02-09T13:12:22.249Z,98628.78
2023-02-09T13:17:35.074Z,98628.38
2023-02-09T13:23:32.040Z,98618.31
2023-02-09T13:28:33.690Z,98633.31
2023-02-09T13:33:47.453Z,98638.34
2023-02-09T13:38:49.374Z,98643.59
2023-02-09T13:43:51.033Z,98632.13
2023-02-09T13:48:52.933Z,98641.34
2023-02-09T13:54:00.963Z,98634.63
2023-02-09T13:59:02.713Z,98635.41
2023-02-09T14:04:11.923Z,98622.13
2023-02-09T14:09:20.778Z,98629.78
2023-02-09T14:14:28.382Z,98625.50
2023-02-09T14:19:33.434Z,98626.78
2023-02-09T14:24:43.835Z,98617.72
2023-02-09T14:29:48.705Z,98613.31
2023-02-09T14:34:51.344Z,98606.22
2023-02-09T14:40:06.275Z,98607.13
2023-02-09T14:45:14.036Z,98604.56
2023-02-09T14:50:18.856Z,98619.59
2023-02-09T14:55:25.070Z,98619.78
2023-02-09T15:00:28.994Z,98612.91
2023-02-09T15:05:30.861Z,98624.47
2023-02-09T15:10:38.329Z,98621.28
2023-02-09T15:15:40.381Z,98615.41
2023-02-09T15:20:41.987Z,98616.16
2023-02-09T15:25:44.964Z,98610.66
2023-02-09T15:30:47.190Z,98615.22
2023-02-09T15:35:50.049Z,98625.38
2023-02-09T15:41:10.607Z,98646.13
2023-02-09T15:46:13.422Z,98650.28
2023-02-09T15:51:16.195Z,98668.91
2023-02-09T15:56:18.779Z,98658.44
2023-02-09T16:01:20.900Z,98679.13
2023-02-09T16:06:26.710Z,98687.59
2023-02-09T16:11:35.206Z,98707.03
2023-02-09T16:16:36.889Z,98708.94
2023-02-09T16:21:40.602Z,98721.09
2023-02-09T16:26:42.259Z,98723.28
2023-02-09T16:31:44.297Z,98725.13
2023-02-09T16:36:48.513Z,98719.03
2023-02-09T16:41:50.754Z,98720.22
2023-02-09T16:46:56.362Z,98722.78
2023-02-09T16:52:02.444Z,98723.00
2023-02-09T16:57:04.452Z,98729.75
2023-02-09T17:02:40.692Z,98742.06
2023-02-09T17:07:53.883Z,98751.50
2023-02-09T17:12:57.758Z,98754.88
2023-02-09T17:18:04.040Z,98746.63
2023-02-09T17:23:05.766Z,98753.69
2023-02-09T17:28:07.480Z,98745.25
2023-02-09T17:33:16.047Z,98754.19
2023-02-09T17:38:21.041Z,98750.66
2023-02-09T17:43:23.836Z,98753.97
2023-02-09T17:48:25.909Z,98765.06
2023-02-09T17:53:32.214Z,98762.03
2023-02-09T17:58:34.105Z,98768.03
2023-02-09T18:03:35.711Z,98757.63
2023-02-09T18:08:37.349Z,98766.00
2023-02-09T18:13:39.589Z,98777.38
2023-02-09T18:18:42.976Z,98778.72
2023-02-09T18:23:44.906Z,98795.44
2023-02-09T18:28:46.565Z,98782.28
2023-02-09T18:33:48.542Z,98789.25
2023-02-09T18:38:52.091Z,98777.81
2023-02-09T18:43:54.501Z,98771.59
2023-02-09T18:48:56.477Z,98756.34
2023-02-09T18:53:58.893Z,98782.91
2023-02-09T18:59:00.623Z,98789.97
2023-02-09T19:04:02.646Z,98807.97
2023-02-09T19:09:04.586Z,98814.25
2023-02-09T19:14:24.547Z,98829.75
2023-02-09T19:19:26.362Z,98822.16
2023-02-09T19:24:28.252Z,98824.13
2023-02-09T19:29:30.084Z,98826.28
2023-02-09T19:34:35.121Z,98831.28
2023-02-09T19:39:38.658Z,98837.47
2023-02-09T19:44:40.306Z,98837.63
2023-02-09T19:49:42.002Z,98844.16
2023-02-09T19:54:43.673Z,98834.19
2023-02-09T19:59:45.320Z,98833.88
2023-02-09T20:04:47.094Z,98847.50
2023-02-09T20:09:50.331Z,98839.75
2023-02-09T20:14:53.967Z,98839.09
2023-02-09T20:19:55.824Z,98841.66
2023-02-09T20:24:57.654Z,98844.25
2023-02-09T20:30:01.371Z,98850.50
2023-02-09T20:35:04.923Z,98849.13
2023-02-09T20:40:11.034Z,98848.06
2023-02-09T20:45:35.826Z,98856.69
2023-02-09T20:50:37.574Z,98872.38
2023-02-09T20:55:39.336Z,98852.88
2023-02-09T21:00:42.413Z,98842.53
2023-02-09T21:05:44.187Z,98841.44
2023-02-09T21:10:46.010Z,98848.78
2023-02-09T21:15:48.696Z,98844.81
2023-02-09T21:20:51.593Z,98857.53
2023-02-09T21:26:04.725Z,98845.41
2023-02-09T21:31:11.382Z,98856.13
2023-02-09T21:36:13.751Z,98871.38
2023-02-09T21:41:40.755Z,98861.47
2023-02-09T21:46:43.765Z,98858.69
2023-02-09T21:51:45.570Z,98861.81
2023-02-09T21:56:47.277Z,98872.97
2023-02-09T22:01:48.983Z,98858.19
2023-02-09T22:06:50.726Z,98868.91
2023-02-09T22:11:52.389Z,98876.09
2023-02-09T22:16:54.658Z,98868.91
2023-02-09T22:21:57.919Z,98877.63
2023-02-09T22:26:59.881Z,98883.25
2023-02-09T22:32:01.739Z,98889.63
2023-02-09T22:37:04.228Z,98889.94
2023-02-09T22:42:05.982Z,98891.19
2023-02-09T22:47:07.891Z,98896.41
2023-02-09T22:52:09.604Z,98890.38
2023-02-09T22:57:11.473Z,98897.69
2023-02-09T23:02:13.226Z,98899.94
2023-02-09T23:07:14.891Z,98907.00
2023-02-09T23:12:16.511Z,98908.25
2023-02-09T23:17:18.160Z,98920.66
2023-02-09T23:22:19.959Z,98919.66
2023-02-09T23:27:22.091Z,98940.78
2023-02-09T23:32:23.699Z,98930.66
2023-02-09T23:37:37.325Z,98948.97
2023-02-09T23:42:39.605Z,98953.78
2023-02-09T23:47:41.325Z,98956.84
2023-02-09T23:52:43.029Z,98969.25
2023-02-09T23:57:44.890Z,98981.06
